createdAt,value
2018-07-08T00:01:08.528Z,12.60
2018-07-08T00:03:34.433Z,12.50
2018-07-08T00:06:00.349Z,12.60
2018-07-08T00:08:27.005Z,12.50
2018-07-08T00:10:52.952Z,12.50
2018-07-08T00:13:18.854Z,12.50
2018-07-08T00:15:44.780Z,12.50
2018-07-08T00:18:10.688Z,12.40
2018-07-08T00:20:36.614Z,12.40
2018-07-08T00:23:02.531Z,12.30
2018-07-08T00:25:28.469Z,12.30
2018-07-08T00:27:54.400Z,12.30
2018-07-08T00:30:20.310Z,12.30
2018-07-08T00:32:46.246Z,12.30
2018-07-08T00:35:12.151Z,12.20
2018-07-08T00:37:38.073Z,12.20
2018-07-08T00:40:03.985Z,12.20
2018-07-08T00:42:29.915Z,12.20
2018-07-08T00:44:55.828Z,12.20
2018-07-08T00:47:21.763Z,12.20
2018-07-08T00:49:47.666Z,12.20
2018-07-08T00:52:13.617Z,12.20
2018-07-08T00:54:39.517Z,12.20
2018-07-08T00:57:05.430Z,12.10
2018-07-08T00:59:31.359Z,12.20
2018-07-08T01:01:57.271Z,12.10
2018-07-08T01:04:23.207Z,12.10
2018-07-08T01:06:49.107Z,12.10
2018-07-08T01:09:15.040Z,12.00
2018-07-08T01:11:40.951Z,12.00
2018-07-08T01:14:06.877Z,12.00
2018-07-08T01:16:32.798Z,12.00
2018-07-08T01:18:58.739Z,12.00
2018-07-08T01:21:24.649Z,12.00
2018-07-08T01:23:50.571Z,11.90
2018-07-08T01:26:16.495Z,11.90
2018-07-08T01:28:42.402Z,11.90
2018-07-08T01:31:08.331Z,11.90
2018-07-08T01:33:34.242Z,11.90
2018-07-08T01:36:00.178Z,11.90
2018-07-08T01:38:26.087Z,11.90
2018-07-08T01:40:52.018Z,11.90
2018-07-08T01:43:17.953Z,11.90
2018-07-08T01:45:43.907Z,11.80
2018-07-08T01:48:09.855Z,11.80
2018-07-08T01:50:35.796Z,11.80
2018-07-08T01:53:01.720Z,11.70
2018-07-08T01:55:27.631Z,11.70
2018-07-08T01:57:53.556Z,11.70
2018-07-08T02:00:19.475Z,11.70
2018-07-08T02:02:46.147Z,11.60
2018-07-08T02:05:12.050Z,11.60
2018-07-08T02:07:37.995Z,11.70
2018-07-08T02:10:03.911Z,11.70
2018-07-08T02:12:29.854Z,11.60
2018-07-08T02:14:55.765Z,11.60
2018-07-08T02:17:21.670Z,11.60
2018-07-08T02:19:47.607Z,11.60
2018-07-08T02:22:13.512Z,11.60
2018-07-08T02:24:39.443Z,11.60
2018-07-08T02:27:05.446Z,11.60
2018-07-08T02:29:31.379Z,11.60
2018-07-08T02:31:57.291Z,11.50
2018-07-08T02:34:23.231Z,11.50
2018-07-08T02:36:49.141Z,11.50
2018-07-08T02:39:15.065Z,11.40
2018-07-08T02:41:40.998Z,11.40
2018-07-08T02:44:06.904Z,11.40
2018-07-08T02:46:32.839Z,11.40
2018-07-08T02:48:58.743Z,11.40
2018-07-08T02:51:24.697Z,11.40
2018-07-08T02:53:51.391Z,11.30
2018-07-08T02:56:17.321Z,11.30
2018-07-08T02:58:43.231Z,11.30
2018-07-08T03:01:09.140Z,11.30
2018-07-08T03:03:35.820Z,11.30
2018-07-08T03:06:01.727Z,11.30
2018-07-08T03:08:27.653Z,11.30
2018-07-08T03:10:53.548Z,11.30
2018-07-08T03:13:20.231Z,11.30
2018-07-08T03:15:46.906Z,11.20
2018-07-08T03:18:13.584Z,11.30
2018-07-08T03:20:39.494Z,11.30
2018-07-08T03:23:05.438Z,11.30
2018-07-08T03:25:31.360Z,11.30
2018-07-08T03:27:57.267Z,11.20
2018-07-08T03:30:23.203Z,11.30
2018-07-08T03:32:49.119Z,11.30
2018-07-08T03:35:15.034Z,11.30
2018-07-08T03:37:40.935Z,11.30
2018-07-08T03:40:06.868Z,11.30
2018-07-08T03:42:32.775Z,11.30
2018-07-08T03:44:59.461Z,11.40
2018-07-08T03:47:25.371Z,11.50
2018-07-08T03:49:51.278Z,11.40
2018-07-08T03:52:17.219Z,11.50
2018-07-08T03:54:43.135Z,11.50
2018-07-08T03:57:09.074Z,11.50
2018-07-08T03:59:34.981Z,11.60
2018-07-08T04:02:00.899Z,11.60
2018-07-08T04:04:26.806Z,11.60
2018-07-08T04:06:52.750Z,11.60
2018-07-08T04:09:18.658Z,11.70
2018-07-08T04:11:44.563Z,11.70
2018-07-08T04:14:10.501Z,11.80
2018-07-08T04:16:36.418Z,11.80
2018-07-08T04:19:02.352Z,11.90
2018-07-08T04:21:28.254Z,11.90
2018-07-08T04:23:54.199Z,11.90
2018-07-08T04:26:20.106Z,12.00
2018-07-08T04:28:46.052Z,12.00
2018-07-08T04:31:11.945Z,12.00
2018-07-08T04:33:37.873Z,12.10
2018-07-08T04:36:03.783Z,12.10
2018-07-08T04:38:29.696Z,12.20
2018-07-08T04:40:55.624Z,12.30
2018-07-08T04:43:21.594Z,12.30
2018-07-08T04:45:47.523Z,12.40
2018-07-08T04:48:13.424Z,12.50
2018-07-08T04:50:39.348Z,12.50
2018-07-08T04:53:05.272Z,12.60
2018-07-08T04:55:31.211Z,12.60
2018-07-08T04:57:57.115Z,12.70
2018-07-08T05:00:23.049Z,12.80
2018-07-08T05:02:48.959Z,12.90
2018-07-08T05:05:14.865Z,13.00
2018-07-08T05:07:40.792Z,13.10
2018-07-08T05:10:06.705Z,13.10
2018-07-08T05:12:32.631Z,13.20
2018-07-08T05:14:58.546Z,13.30
2018-07-08T05:17:24.493Z,13.40
2018-07-08T05:19:50.394Z,13.60
2018-07-08T05:22:16.313Z,13.80
2018-07-08T05:24:42.223Z,14.00
2018-07-08T05:27:08.380Z,14.10
2018-07-08T05:29:34.292Z,14.20
2018-07-08T05:32:00.209Z,14.30
2018-07-08T05:34:26.138Z,14.40
2018-07-08T05:36:52.043Z,14.50
2018-07-08T05:39:17.979Z,14.60
2018-07-08T05:41:43.890Z,14.60
2018-07-08T05:44:09.839Z,14.70
2018-07-08T05:46:35.757Z,14.70
2018-07-08T05:49:01.683Z,14.80
2018-07-08T05:51:27.579Z,14.90
2018-07-08T05:53:53.510Z,15.00
2018-07-08T05:56:19.418Z,15.00
2018-07-08T05:58:45.320Z,15.10
2018-07-08T06:01:11.254Z,15.20
2018-07-08T06:03:37.162Z,15.30
2018-07-08T06:06:03.104Z,15.30
2018-07-08T06:08:29.007Z,15.40
2018-07-08T06:10:54.950Z,15.50
2018-07-08T06:13:20.880Z,15.50
2018-07-08T06:15:46.822Z,15.60
2018-07-08T06:18:12.724Z,15.80
2018-07-08T06:20:38.635Z,15.90
2018-07-08T06:23:04.562Z,15.90
2018-07-08T06:25:30.469Z,16.00
2018-07-08T06:27:56.420Z,16.30
2018-07-08T06:30:22.318Z,16.40
2018-07-08T06:32:48.244Z,16.60
2018-07-08T06:35:14.142Z,16.60
2018-07-08T06:37:40.089Z,16.60
2018-07-08T06:40:06.007Z,16.80
2018-07-08T06:42:31.922Z,17.20
2018-07-08T06:44:57.863Z,17.80
2018-07-08T06:47:23.813Z,18.70
2018-07-08T06:49:49.745Z,20.10
2018-07-08T06:52:16.414Z,22.00
2018-07-08T06:54:42.338Z,22.00
2018-07-08T06:57:08.250Z,22.10
2018-07-08T06:59:34.203Z,22.30
2018-07-08T07:02:00.113Z,22.30
2018-07-08T07:04:26.087Z,22.60
2018-07-08T07:06:52.734Z,23.30
2018-07-08T07:09:19.385Z,23.50
2018-07-08T07:11:45.369Z,23.50
2018-07-08T07:14:11.248Z,23.30
2018-07-08T07:16:37.185Z,24.00
2018-07-08T07:19:03.107Z,24.20
2018-07-08T07:21:29.090Z,24.00
2018-07-08T07:23:54.998Z,23.70
2018-07-08T07:26:21.679Z,23.40
2018-07-08T07:28:47.577Z,23.40
2018-07-08T07:31:13.502Z,22.90
2018-07-08T07:33:39.434Z,22.40
2018-07-08T07:36:05.350Z,22.20
2018-07-08T07:38:31.295Z,21.60
2018-07-08T07:40:57.214Z,21.30
2018-07-08T07:43:23.147Z,21.60
2018-07-08T07:45:49.044Z,21.60
2018-07-08T07:48:14.974Z,21.50
2018-07-08T07:50:40.879Z,22.10
2018-07-08T07:53:06.828Z,23.00
2018-07-08T07:55:32.741Z,23.60
2018-07-08T07:57:58.647Z,23.50
2018-07-08T08:00:24.573Z,22.70
2018-07-08T08:02:50.476Z,22.30
2018-07-08T08:05:17.144Z,24.00
2018-07-08T08:07:43.161Z,24.00
2018-07-08T08:10:09.092Z,25.20
2018-07-08T08:12:35.261Z,25.50
2018-07-08T08:15:01.363Z,26.50
2018-07-08T08:17:27.271Z,27.00
2018-07-08T08:19:53.210Z,27.40
2018-07-08T08:22:19.131Z,27.90
2018-07-08T08:24:45.057Z,28.30
2018-07-08T08:27:10.964Z,28.10
2018-07-08T08:29:36.858Z,27.20
2018-07-08T08:32:02.788Z,27.30
2018-07-08T08:34:28.694Z,27.40
2018-07-08T08:36:54.615Z,27.20
2018-07-08T08:39:20.518Z,27.50
2018-07-08T08:41:47.191Z,28.10
2018-07-08T08:44:13.120Z,28.10
2018-07-08T08:46:39.090Z,28.10
2018-07-08T08:49:05.753Z,28.90
2018-07-08T08:51:31.683Z,28.80
2018-07-08T08:53:57.790Z,28.70
2018-07-08T08:56:23.806Z,28.80
2018-07-08T08:58:50.458Z,27.70
2018-07-08T09:01:16.392Z,27.70
2018-07-08T09:03:42.372Z,27.70
2018-07-08T09:06:08.243Z,27.90
2018-07-08T09:08:34.167Z,28.20
2018-07-08T09:11:00.066Z,28.70
2018-07-08T09:13:25.987Z,28.40
2018-07-08T09:15:51.916Z,28.90
2018-07-08T09:18:17.851Z,29.10
2018-07-08T09:20:43.774Z,28.80
2018-07-08T09:23:09.710Z,29.50
2018-07-08T09:25:35.621Z,28.90
2018-07-08T09:28:01.553Z,28.80
2018-07-08T09:30:27.463Z,28.60
2018-07-08T09:32:53.371Z,28.20
2018-07-08T09:35:19.323Z,28.90
2018-07-08T09:37:45.227Z,28.90
2018-07-08T09:40:11.152Z,29.20
2018-07-08T09:42:37.062Z,28.50
2018-07-08T09:45:02.979Z,29.20
2018-07-08T09:47:28.901Z,29.50
2018-07-08T09:49:54.856Z,29.00
2018-07-08T09:52:20.769Z,29.50
2018-07-08T09:54:46.690Z,29.60
2018-07-08T09:57:12.653Z,29.00
2018-07-08T09:59:38.558Z,28.80
2018-07-08T10:02:04.480Z,29.20
2018-07-08T10:04:30.427Z,29.10
2018-07-08T10:06:56.342Z,29.40
2018-07-08T10:09:23.007Z,28.80
2018-07-08T10:11:48.916Z,28.80
2018-07-08T10:14:14.852Z,27.50
2018-07-08T10:16:40.755Z,26.50
2018-07-08T10:19:07.410Z,26.10
2018-07-08T10:21:33.364Z,26.10
2018-07-08T10:23:59.276Z,26.00
2018-07-08T10:26:25.185Z,25.80
2018-07-08T10:28:51.120Z,26.00
2018-07-08T10:31:17.031Z,25.70
2018-07-08T10:33:42.964Z,25.20
2018-07-08T10:36:08.868Z,25.40
2018-07-08T10:38:34.794Z,25.30
2018-07-08T10:41:00.696Z,25.70
2018-07-08T10:43:26.685Z,25.60
2018-07-08T10:45:52.579Z,25.30
2018-07-08T10:48:18.477Z,25.00
2018-07-08T10:50:44.402Z,24.60
2018-07-08T10:53:10.341Z,24.90
2018-07-08T10:55:36.279Z,24.50
2018-07-08T10:58:02.197Z,24.60
2018-07-08T11:00:28.145Z,24.40
2018-07-08T11:02:54.050Z,24.20
2018-07-08T11:05:19.997Z,24.50
2018-07-08T11:07:46.649Z,24.70
2018-07-08T11:10:13.293Z,24.70
2018-07-08T11:12:39.209Z,24.70
2018-07-08T11:15:05.847Z,25.10
2018-07-08T11:17:31.770Z,25.10
2018-07-08T11:19:57.680Z,25.00
2018-07-08T11:22:24.341Z,24.80
2018-07-08T11:24:50.234Z,24.80
2018-07-08T11:27:16.874Z,24.50
2018-07-08T11:29:43.548Z,24.60
2018-07-08T11:32:09.450Z,24.50
2018-07-08T11:34:35.378Z,24.40
2018-07-08T11:37:01.312Z,24.40
2018-07-08T11:39:27.238Z,24.40
2018-07-08T11:41:53.148Z,24.40
2018-07-08T11:44:19.060Z,24.20
2018-07-08T11:46:44.991Z,24.40
2018-07-08T11:49:10.891Z,24.30
2018-07-08T11:51:37.554Z,24.10
2018-07-08T11:54:03.505Z,24.10
2018-07-08T11:56:29.427Z,23.90
2018-07-08T11:58:55.342Z,23.80
2018-07-08T12:01:21.290Z,24.00
2018-07-08T12:03:47.210Z,24.10
2018-07-08T12:06:13.117Z,23.90
2018-07-08T12:08:39.040Z,24.10
2018-07-08T12:11:04.942Z,24.20
2018-07-08T12:13:30.876Z,24.20
2018-07-08T12:15:56.798Z,23.90
2018-07-08T12:18:22.727Z,23.60
2018-07-08T12:20:48.638Z,23.50
2018-07-08T12:23:14.620Z,23.60
2018-07-08T12:25:40.557Z,23.60
2018-07-08T12:28:06.459Z,23.50
2018-07-08T12:30:33.130Z,23.10
2018-07-08T12:32:59.039Z,23.10
2018-07-08T12:35:24.974Z,23.00
2018-07-08T12:37:50.869Z,22.90
2018-07-08T12:40:16.804Z,22.90
2018-07-08T12:42:42.718Z,22.80
2018-07-08T12:45:08.645Z,22.70
2018-07-08T12:47:34.553Z,22.70
2018-07-08T12:50:00.498Z,22.60
2018-07-08T12:52:26.394Z,22.50
2018-07-08T12:54:52.338Z,22.80
2018-07-08T12:57:18.268Z,22.60
2018-07-08T12:59:44.184Z,22.70
2018-07-08T13:02:10.113Z,22.80
2018-07-08T13:04:36.030Z,22.80
2018-07-08T13:07:01.958Z,22.70
2018-07-08T13:09:27.881Z,22.60
2018-07-08T13:11:53.822Z,22.60
2018-07-08T13:14:19.723Z,22.60
2018-07-08T13:16:45.645Z,22.40
2018-07-08T13:19:11.550Z,22.50
2018-07-08T13:21:37.468Z,22.50
2018-07-08T13:24:03.395Z,22.30
2018-07-08T13:26:29.364Z,22.20
2018-07-08T13:28:55.282Z,22.10
2018-07-08T13:31:21.216Z,22.10
2018-07-08T13:33:47.152Z,22.30
2018-07-08T13:36:13.791Z,22.30
2018-07-08T13:38:40.470Z,22.10
2018-07-08T13:41:06.378Z,22.00
2018-07-08T13:43:32.292Z,22.10
2018-07-08T13:45:58.214Z,22.20
2018-07-08T13:48:24.155Z,22.40
2018-07-08T13:50:50.089Z,22.40
2018-07-08T13:53:15.997Z,22.30
2018-07-08T13:55:41.987Z,22.20
2018-07-08T13:58:07.842Z,22.30
2018-07-08T14:00:33.768Z,22.30
2018-07-08T14:02:59.684Z,22.40
2018-07-08T14:05:25.624Z,22.40
2018-07-08T14:07:51.535Z,22.30
2018-07-08T14:10:17.459Z,22.10
2018-07-08T14:12:43.389Z,21.90
2018-07-08T14:15:09.295Z,21.80
2018-07-08T14:17:35.216Z,21.80
2018-07-08T14:20:01.131Z,21.90
2018-07-08T14:22:27.091Z,22.00
2018-07-08T14:24:52.992Z,21.90
2018-07-08T14:27:18.901Z,22.00
2018-07-08T14:29:44.835Z,22.00
2018-07-08T14:32:10.758Z,22.30
2018-07-08T14:34:36.707Z,22.40
2018-07-08T14:37:02.613Z,22.20
2018-07-08T14:39:28.545Z,22.10
2018-07-08T14:41:54.451Z,21.90
2018-07-08T14:44:20.389Z,21.90
2018-07-08T14:46:46.299Z,22.10
2018-07-08T14:49:12.202Z,21.90
2018-07-08T14:51:38.145Z,22.00
2018-07-08T14:54:04.071Z,22.10
2018-07-08T14:56:30.002Z,22.20
2018-07-08T14:58:55.911Z,22.20
2018-07-08T15:01:21.837Z,22.10
2018-07-08T15:03:47.754Z,21.80
2018-07-08T15:06:13.705Z,21.80
2018-07-08T15:08:40.372Z,21.50
2018-07-08T15:11:06.302Z,21.50
2018-07-08T15:13:32.234Z,21.50
2018-07-08T15:15:58.219Z,21.70
2018-07-08T15:18:24.113Z,21.50
2018-07-08T15:20:50.051Z,21.40
2018-07-08T15:23:16.722Z,21.40
2018-07-08T15:25:42.630Z,21.40
2018-07-08T15:28:08.576Z,21.40
2018-07-08T15:30:34.505Z,21.40
2018-07-08T15:33:00.452Z,21.40
2018-07-08T15:35:26.368Z,21.40
2018-07-08T15:37:52.286Z,21.40
2018-07-08T15:40:18.239Z,21.40
2018-07-08T15:42:44.880Z,21.20
2018-07-08T15:45:11.552Z,21.10
2018-07-08T15:47:37.453Z,21.10
2018-07-08T15:50:03.387Z,21.10
2018-07-08T15:52:29.289Z,21.10
2018-07-08T15:54:56.694Z,21.10
2018-07-08T15:57:29.527Z,21.00
2018-07-08T15:59:56.191Z,21.00
2018-07-08T16:02:22.108Z,21.00
2018-07-08T16:04:48.011Z,21.00
2018-07-08T16:07:14.675Z,20.80
2018-07-08T16:09:40.588Z,20.80
2018-07-08T16:12:06.533Z,20.70
2018-07-08T16:14:32.550Z,20.70
2018-07-08T16:16:58.602Z,20.80
2018-07-08T16:19:24.538Z,20.80
2018-07-08T16:21:51.200Z,20.60
2018-07-08T16:24:17.863Z,20.50
2018-07-08T16:26:43.788Z,20.50
2018-07-08T16:29:09.712Z,20.50
2018-07-08T16:31:35.626Z,20.50
2018-07-08T16:34:01.583Z,20.50
2018-07-08T16:36:27.474Z,20.60
2018-07-08T16:38:53.383Z,20.50
2018-07-08T16:41:19.327Z,20.50
2018-07-08T16:43:45.226Z,20.40
2018-07-08T16:46:11.283Z,20.40
2018-07-08T16:48:37.205Z,20.50
2018-07-08T16:51:03.114Z,20.50
2018-07-08T16:53:29.024Z,20.30
2018-07-08T16:55:54.955Z,20.30
2018-07-08T16:58:20.865Z,20.20
2018-07-08T17:00:46.810Z,20.10
2018-07-08T17:03:12.787Z,20.10
2018-07-08T17:05:38.695Z,20.10
2018-07-08T17:08:04.628Z,20.20
2018-07-08T17:10:30.554Z,20.20
2018-07-08T17:12:57.208Z,20.20
2018-07-08T17:15:23.120Z,20.20
2018-07-08T17:17:49.047Z,20.10
2018-07-08T17:20:14.967Z,19.90
2018-07-08T17:22:40.902Z,19.90
2018-07-08T17:25:06.822Z,20.00
2018-07-08T17:27:32.729Z,20.00
2018-07-08T17:29:58.664Z,19.90
2018-07-08T17:32:24.572Z,19.90
2018-07-08T17:34:50.504Z,19.90
2018-07-08T17:37:16.411Z,19.80
2018-07-08T17:39:42.355Z,19.90
2018-07-08T17:42:08.274Z,19.90
2018-07-08T17:44:34.227Z,19.80
2018-07-08T17:47:00.168Z,19.70
2018-07-08T17:49:26.089Z,19.80
2018-07-08T17:51:52.031Z,19.80
2018-07-08T17:54:18.706Z,19.60
2018-07-08T17:56:44.624Z,19.60
2018-07-08T17:59:10.543Z,19.60
2018-07-08T18:01:36.458Z,19.50
2018-07-08T18:04:02.364Z,19.50
2018-07-08T18:06:28.301Z,19.40
2018-07-08T18:08:54.238Z,19.40
2018-07-08T18:11:20.145Z,19.30
2018-07-08T18:13:46.088Z,19.30
2018-07-08T18:16:12.052Z,19.30
2018-07-08T18:18:37.946Z,19.20
2018-07-08T18:21:03.855Z,19.20
2018-07-08T18:23:29.800Z,19.20
2018-07-08T18:25:55.715Z,19.20
2018-07-08T18:28:21.644Z,19.10
2018-07-08T18:30:47.567Z,19.10
2018-07-08T18:33:13.506Z,19.10
2018-07-08T18:35:40.162Z,19.00
2018-07-08T18:38:06.108Z,19.00
2018-07-08T18:40:32.023Z,19.00
2018-07-08T18:42:57.940Z,19.00
2018-07-08T18:45:23.864Z,18.90
2018-07-08T18:47:49.783Z,18.90
2018-07-08T18:50:15.719Z,18.80
2018-07-08T18:52:41.626Z,18.80
2018-07-08T18:55:07.549Z,18.70
2018-07-08T18:57:33.490Z,18.70
2018-07-08T18:59:59.424Z,18.50
2018-07-08T19:02:25.372Z,18.50
2018-07-08T19:04:51.275Z,18.50
2018-07-08T19:07:17.198Z,18.40
2018-07-08T19:09:43.164Z,18.30
2018-07-08T19:12:09.146Z,18.30
2018-07-08T19:14:35.045Z,18.30
2018-07-08T19:17:00.999Z,18.20
2018-07-08T19:19:26.913Z,18.20
2018-07-08T19:21:52.830Z,18.10
2018-07-08T19:24:18.797Z,18.00
2018-07-08T19:26:45.487Z,17.90
2018-07-08T19:29:11.407Z,17.90
2018-07-08T19:31:37.325Z,17.90
2018-07-08T19:34:03.268Z,17.80
2018-07-08T19:36:29.174Z,17.80
2018-07-08T19:38:55.113Z,17.70
2018-07-08T19:41:21.026Z,17.60
2018-07-08T19:43:46.946Z,17.60
2018-07-08T19:46:12.860Z,17.50
2018-07-08T19:48:38.810Z,17.50
2018-07-08T19:51:05.462Z,17.40
2018-07-08T19:53:32.107Z,17.30
2018-07-08T19:55:58.043Z,17.30
2018-07-08T19:58:23.948Z,17.20
2018-07-08T20:00:50.610Z,17.10
2018-07-08T20:03:16.512Z,17.00
2018-07-08T20:05:42.429Z,17.00
2018-07-08T20:08:09.072Z,16.80
2018-07-08T20:10:35.741Z,16.80
2018-07-08T20:13:01.655Z,16.80
2018-07-08T20:15:27.596Z,16.80
2018-07-08T20:17:54.249Z,16.70
2018-07-08T20:20:20.184Z,16.70
2018-07-08T20:22:46.122Z,16.60
2018-07-08T20:25:12.793Z,16.50
2018-07-08T20:27:38.739Z,16.50
2018-07-08T20:30:04.650Z,16.50
2018-07-08T20:32:30.575Z,16.40
2018-07-08T20:34:56.500Z,16.30
2018-07-08T20:37:22.447Z,16.20
2018-07-08T20:39:48.368Z,16.30
2018-07-08T20:42:14.271Z,16.20
2018-07-08T20:44:40.189Z,16.20
2018-07-08T20:47:06.189Z,16.10
2018-07-08T20:49:32.122Z,16.10
2018-07-08T20:51:58.043Z,16.10
2018-07-08T20:54:23.970Z,16.10
2018-07-08T20:56:49.875Z,16.00
2018-07-08T20:59:15.790Z,16.00
2018-07-08T21:01:41.721Z,15.90
2018-07-08T21:04:07.649Z,15.90
2018-07-08T21:06:33.577Z,15.80
2018-07-08T21:08:59.490Z,15.80
2018-07-08T21:11:25.405Z,15.80
2018-07-08T21:13:51.311Z,15.80
2018-07-08T21:16:17.251Z,15.70
2018-07-08T21:18:43.208Z,15.70
2018-07-08T21:21:09.145Z,15.60
2018-07-08T21:23:35.044Z,15.60
2018-07-08T21:26:00.966Z,15.60
2018-07-08T21:28:26.873Z,15.60
2018-07-08T21:30:53.036Z,15.60
2018-07-08T21:33:18.942Z,15.60
2018-07-08T21:35:45.641Z,15.50
2018-07-08T21:38:11.581Z,15.40
2018-07-08T21:40:37.487Z,15.40
2018-07-08T21:43:03.425Z,15.40
2018-07-08T21:45:29.336Z,15.30
2018-07-08T21:47:55.267Z,15.20
2018-07-08T21:50:21.168Z,15.30
2018-07-08T21:52:47.107Z,15.20
2018-07-08T21:55:13.017Z,15.20
2018-07-08T21:57:38.964Z,15.10
2018-07-08T22:00:05.606Z,15.10
2018-07-08T22:02:31.521Z,15.00
2018-07-08T22:04:57.461Z,15.00
2018-07-08T22:07:23.359Z,15.00
2018-07-08T22:09:49.290Z,15.00
2018-07-08T22:12:15.199Z,15.00
2018-07-08T22:14:41.130Z,15.00
2018-07-08T22:17:07.038Z,15.00
2018-07-08T22:19:32.973Z,14.90
2018-07-08T22:21:58.864Z,14.90
2018-07-08T22:24:24.799Z,14.90
2018-07-08T22:26:50.703Z,14.90
2018-07-08T22:29:16.606Z,14.90
2018-07-08T22:31:43.272Z,14.80
2018-07-08T22:34:09.187Z,14.80
2018-07-08T22:36:35.119Z,14.80
2018-07-08T22:39:01.026Z,14.80
2018-07-08T22:41:26.954Z,14.80
2018-07-08T22:43:52.866Z,14.70
2018-07-08T22:46:18.803Z,14.60
2018-07-08T22:48:44.728Z,14.60
2018-07-08T22:51:10.671Z,14.50
2018-07-08T22:53:36.580Z,14.50
2018-07-08T22:56:02.513Z,14.50
2018-07-08T22:58:29.256Z,14.40
2018-07-08T23:00:55.196Z,14.40
2018-07-08T23:03:21.156Z,14.40
2018-07-08T23:05:47.078Z,14.40
2018-07-08T23:08:13.009Z,14.30
2018-07-08T23:10:38.913Z,14.30
2018-07-08T23:13:04.878Z,14.30
2018-07-08T23:15:30.793Z,14.20
2018-07-08T23:17:56.677Z,14.20
2018-07-08T23:20:23.347Z,14.10
2018-07-08T23:22:49.262Z,14.20
2018-07-08T23:25:15.200Z,14.10
2018-07-08T23:27:41.110Z,14.10
2018-07-08T23:30:07.041Z,14.10
2018-07-08T23:32:32.958Z,14.00
2018-07-08T23:34:58.874Z,14.00
2018-07-08T23:37:24.781Z,14.00
2018-07-08T23:39:50.714Z,14.00
2018-07-08T23:42:16.628Z,14.00
2018-07-08T23:44:42.599Z,13.90
2018-07-08T23:47:08.506Z,13.90
2018-07-08T23:49:34.414Z,13.90
2018-07-08T23:52:00.335Z,13.90
2018-07-08T23:54:26.250Z,13.90
2018-07-08T23:56:52.179Z,13.90
2018-07-08T23:59:18.096Z,13.90
